sensor_id;sensor_type;location;lat;lon;timestamp;P1;durP1;ratioP1;P2;durP2;ratioP2
61112;SDS011;47184;57.998;56.184;2022-10-31T00:00:41;0.57;;;0.47;;
61112;SDS011;47184;57.998;56.184;2022-10-31T00:03:07;1.02;;;0.70;;
61112;SDS011;47184;57.998;56.184;2022-10-31T00:05:33;1.73;;;1.10;;
61112;SDS011;47184;57.998;56.184;2022-10-31T00:07:59;0.88;;;0.80;;
61112;SDS011;47184;57.998;56.184;2022-10-31T00:10:25;1.45;;;1.17;;
61112;SDS011;47184;57.998;56.184;2022-10-31T00:12:51;1.20;;;0.80;;
61112;SDS011;47184;57.998;56.184;2022-10-31T00:15:19;1.35;;;0.60;;
61112;SDS011;47184;57.998;56.184;2022-10-31T00:17:45;1.63;;;1.00;;
61112;SDS011;47184;57.998;56.184;2022-10-31T00:20:11;2.90;;;0.75;;
61112;SDS011;47184;57.998;56.184;2022-10-31T00:22:37;2.20;;;0.90;;
61112;SDS011;47184;57.998;56.184;2022-10-31T00:25:03;4.65;;;0.63;;
61112;SDS011;47184;57.998;56.184;2022-10-31T00:27:29;1.92;;;0.63;;
61112;SDS011;47184;57.998;56.184;2022-10-31T00:29:55;1.60;;;1.00;;
61112;SDS011;47184;57.998;56.184;2022-10-31T00:32:21;1.80;;;1.20;;
61112;SDS011;47184;57.998;56.184;2022-10-31T00:34:47;1.92;;;1.10;;
61112;SDS011;47184;57.998;56.184;2022-10-31T00:37:13;1.95;;;0.88;;
61112;SDS011;47184;57.998;56.184;2022-10-31T00:39:41;1.52;;;0.82;;
61112;SDS011;47184;57.998;56.184;2022-10-31T00:42:07;0.90;;;0.38;;
61112;SDS011;47184;57.998;56.184;2022-10-31T00:44:33;0.88;;;0.60;;
61112;SDS011;47184;57.998;56.184;2022-10-31T00:46:59;1.25;;;1.15;;
61112;SDS011;47184;57.998;56.184;2022-10-31T00:49:25;1.15;;;0.77;;
61112;SDS011;47184;57.998;56.184;2022-10-31T00:51:51;1.40;;;0.50;;
61112;SDS011;47184;57.998;56.184;2022-10-31T00:54:17;1.67;;;1.00;;
61112;SDS011;47184;57.998;56.184;2022-10-31T00:56:43;1.00;;;0.80;;
61112;SDS011;47184;57.998;56.184;2022-10-31T00:59:09;1.55;;;0.43;;
61112;SDS011;47184;57.998;56.184;2022-10-31T01:01:35;2.03;;;1.45;;
61112;SDS011;47184;57.998;56.184;2022-10-31T01:04:01;1.42;;;0.85;;
61112;SDS011;47184;57.998;56.184;2022-10-31T01:06:27;1.40;;;0.95;;
61112;SDS011;47184;57.998;56.184;2022-10-31T01:08:56;2.33;;;1.60;;
61112;SDS011;47184;57.998;56.184;2022-10-31T01:11:22;1.50;;;1.05;;
61112;SDS011;47184;57.998;56.184;2022-10-31T01:13:50;1.15;;;0.85;;
61112;SDS011;47184;57.998;56.184;2022-10-31T01:16:19;2.10;;;1.25;;
61112;SDS011;47184;57.998;56.184;2022-10-31T01:18:49;1.02;;;0.73;;
61112;SDS011;47184;57.998;56.184;2022-10-31T01:21:20;1.25;;;0.70;;
61112;SDS011;47184;57.998;56.184;2022-10-31T01:23:48;1.30;;;0.85;;
61112;SDS011;47184;57.998;56.184;2022-10-31T01:26:16;0.93;;;0.55;;
61112;SDS011;47184;57.998;56.184;2022-10-31T01:28:53;0.77;;;0.57;;
61112;SDS011;47184;57.998;56.184;2022-10-31T01:31:22;1.38;;;0.80;;
61112;SDS011;47184;57.998;56.184;2022-10-31T01:33:50;1.65;;;0.95;;
61112;SDS011;47184;57.998;56.184;2022-10-31T01:38:52;1.85;;;0.75;;
61112;SDS011;47184;57.998;56.184;2022-10-31T01:41:20;1.42;;;0.50;;
61112;SDS011;47184;57.998;56.184;2022-10-31T01:46:23;2.08;;;0.90;;
61112;SDS011;47184;57.998;56.184;2022-10-31T01:49:03;0.77;;;0.60;;
61112;SDS011;47184;57.998;56.184;2022-10-31T01:51:34;0.70;;;0.55;;
61112;SDS011;47184;57.998;56.184;2022-10-31T01:54:05;0.63;;;0.40;;
61112;SDS011;47184;57.998;56.184;2022-10-31T01:56:34;0.85;;;0.68;;
61112;SDS011;47184;57.998;56.184;2022-10-31T01:59:04;2.08;;;0.98;;
61112;SDS011;47184;57.998;56.184;2022-10-31T02:01:39;2.08;;;1.42;;
61112;SDS011;47184;57.998;56.184;2022-10-31T02:04:05;1.02;;;0.80;;
61112;SDS011;47184;57.998;56.184;2022-10-31T02:09:11;1.10;;;0.70;;
61112;SDS011;47184;57.998;56.184;2022-10-31T02:11:39;1.10;;;0.80;;
61112;SDS011;47184;57.998;56.184;2022-10-31T02:14:10;0.80;;;0.50;;
61112;SDS011;47184;57.998;56.184;2022-10-31T02:16:37;0.80;;;0.60;;
61112;SDS011;47184;57.998;56.184;2022-10-31T02:19:04;2.03;;;1.40;;
61112;SDS011;47184;57.998;56.184;2022-10-31T02:21:37;0.90;;;0.47;;
61112;SDS011;47184;57.998;56.184;2022-10-31T02:32:49;2.47;;;1.02;;
61112;SDS011;47184;57.998;56.184;2022-10-31T02:46:48;4.57;;;0.65;;
61112;SDS011;47184;57.998;56.184;2022-10-31T02:49:23;0.98;;;0.70;;
61112;SDS011;47184;57.998;56.184;2022-10-31T02:51:54;5.78;;;0.95;;
61112;SDS011;47184;57.998;56.184;2022-10-31T02:54:24;1.20;;;0.55;;
61112;SDS011;47184;57.998;56.184;2022-10-31T02:57:03;1.20;;;0.85;;
61112;SDS011;47184;57.998;56.184;2022-10-31T02:59:33;0.40;;;0.30;;
61112;SDS011;47184;57.998;56.184;2022-10-31T03:02:06;2.70;;;1.33;;
61112;SDS011;47184;57.998;56.184;2022-10-31T03:04:49;0.50;;;0.38;;
61112;SDS011;47184;57.998;56.184;2022-10-31T03:07:31;2.25;;;1.05;;
61112;SDS011;47184;57.998;56.184;2022-10-31T03:13:20;1.13;;;0.80;;
61112;SDS011;47184;57.998;56.184;2022-10-31T03:16:02;1.42;;;0.63;;
61112;SDS011;47184;57.998;56.184;2022-10-31T03:18:40;3.55;;;1.42;;
61112;SDS011;47184;57.998;56.184;2022-10-31T03:21:13;1.67;;;0.57;;
61112;SDS011;47184;57.998;56.184;2022-10-31T03:23:43;2.65;;;1.23;;
61112;SDS011;47184;57.998;56.184;2022-10-31T03:26:18;1.33;;;0.68;;
61112;SDS011;47184;57.998;56.184;2022-10-31T03:29:00;6.18;;;1.52;;
61112;SDS011;47184;57.998;56.184;2022-10-31T03:31:30;1.55;;;0.90;;
61112;SDS011;47184;57.998;56.184;2022-10-31T03:34:01;2.03;;;0.63;;
61112;SDS011;47184;57.998;56.184;2022-10-31T03:36:29;1.65;;;0.57;;
61112;SDS011;47184;57.998;56.184;2022-10-31T03:38:57;1.77;;;0.77;;
61112;SDS011;47184;57.998;56.184;2022-10-31T03:41:28;0.95;;;0.70;;
61112;SDS011;47184;57.998;56.184;2022-10-31T03:43:59;2.42;;;1.42;;
61112;SDS011;47184;57.998;56.184;2022-10-31T03:46:29;1.55;;;1.17;;
61112;SDS011;47184;57.998;56.184;2022-10-31T03:48:57;2.58;;;1.42;;
61112;SDS011;47184;57.998;56.184;2022-10-31T03:54:25;3.47;;;1.60;;
61112;SDS011;47184;57.998;56.184;2022-10-31T03:57:27;2.00;;;1.20;;
61112;SDS011;47184;57.998;56.184;2022-10-31T04:00:08;1.60;;;1.20;;
61112;SDS011;47184;57.998;56.184;2022-10-31T04:03:05;4.55;;;1.20;;
61112;SDS011;47184;57.998;56.184;2022-10-31T04:05:37;1.05;;;0.70;;
61112;SDS011;47184;57.998;56.184;2022-10-31T04:08:07;1.70;;;0.50;;
61112;SDS011;47184;57.998;56.184;2022-10-31T04:10:38;2.17;;;1.27;;
61112;SDS011;47184;57.998;56.184;2022-10-31T04:13:07;1.55;;;0.70;;
61112;SDS011;47184;57.998;56.184;2022-10-31T04:15:45;0.50;;;0.40;;
61112;SDS011;47184;57.998;56.184;2022-10-31T04:18:14;2.67;;;1.42;;
61112;SDS011;47184;57.998;56.184;2022-10-31T04:20:40;3.15;;;1.02;;
61112;SDS011;47184;57.998;56.184;2022-10-31T04:23:41;2.35;;;1.05;;
61112;SDS011;47184;57.998;56.184;2022-10-31T04:26:12;0.77;;;0.60;;
61112;SDS011;47184;57.998;56.184;2022-10-31T04:28:38;0.90;;;0.57;;
61112;SDS011;47184;57.998;56.184;2022-10-31T04:31:04;0.52;;;0.45;;
61112;SDS011;47184;57.998;56.184;2022-10-31T04:33:33;1.38;;;0.95;;
61112;SDS011;47184;57.998;56.184;2022-10-31T04:36:01;2.08;;;0.80;;
61112;SDS011;47184;57.998;56.184;2022-10-31T04:38:27;1.45;;;0.77;;
61112;SDS011;47184;57.998;56.184;2022-10-31T04:40:53;8.20;;;1.83;;
61112;SDS011;47184;57.998;56.184;2022-10-31T04:43:38;3.97;;;1.92;;
61112;SDS011;47184;57.998;56.184;2022-10-31T04:46:04;4.68;;;1.10;;
61112;SDS011;47184;57.998;56.184;2022-10-31T04:48:31;1.63;;;0.93;;
61112;SDS011;47184;57.998;56.184;2022-10-31T04:51:00;0.52;;;0.32;;
61112;SDS011;47184;57.998;56.184;2022-10-31T04:53:27;5.32;;;1.88;;
61112;SDS011;47184;57.998;56.184;2022-10-31T04:56:20;3.65;;;1.40;;
61112;SDS011;47184;57.998;56.184;2022-10-31T04:58:51;3.72;;;1.25;;
61112;SDS011;47184;57.998;56.184;2022-10-31T05:01:18;2.53;;;1.23;;
61112;SDS011;47184;57.998;56.184;2022-10-31T05:03:44;3.90;;;1.63;;
61112;SDS011;47184;57.998;56.184;2022-10-31T05:06:10;8.73;;;1.92;;
61112;SDS011;47184;57.998;56.184;2022-10-31T05:08:40;3.25;;;0.70;;
61112;SDS011;47184;57.998;56.184;2022-10-31T05:11:07;4.38;;;2.67;;
61112;SDS011;47184;57.998;56.184;2022-10-31T05:13:33;1.50;;;0.98;;
61112;SDS011;47184;57.998;56.184;2022-10-31T05:16:11;3.00;;;1.30;;
61112;SDS011;47184;57.998;56.184;2022-10-31T05:19:03;1.48;;;0.90;;
61112;SDS011;47184;57.998;56.184;2022-10-31T05:21:48;1.20;;;0.85;;
61112;SDS011;47184;57.998;56.184;2022-10-31T05:24:14;2.05;;;1.45;;
61112;SDS011;47184;57.998;56.184;2022-10-31T05:26:46;4.05;;;1.65;;
61112;SDS011;47184;57.998;56.184;2022-10-31T05:29:12;4.43;;;2.28;;
61112;SDS011;47184;57.998;56.184;2022-10-31T05:31:38;2.08;;;1.17;;
61112;SDS011;47184;57.998;56.184;2022-10-31T05:34:07;3.00;;;1.20;;
61112;SDS011;47184;57.998;56.184;2022-10-31T05:36:52;6.03;;;3.05;;
61112;SDS011;47184;57.998;56.184;2022-10-31T05:39:21;4.80;;;1.77;;
61112;SDS011;47184;57.998;56.184;2022-10-31T05:41:52;3.67;;;1.85;;
61112;SDS011;47184;57.998;56.184;2022-10-31T05:44:22;2.92;;;1.27;;
61112;SDS011;47184;57.998;56.184;2022-10-31T05:47:11;5.38;;;2.50;;
61112;SDS011;47184;57.998;56.184;2022-10-31T05:50:12;4.38;;;2.35;;
61112;SDS011;47184;57.998;56.184;2022-10-31T05:52:46;6.03;;;2.13;;
61112;SDS011;47184;57.998;56.184;2022-10-31T05:55:33;2.70;;;2.10;;
61112;SDS011;47184;57.998;56.184;2022-10-31T05:58:19;3.35;;;1.75;;
61112;SDS011;47184;57.998;56.184;2022-10-31T06:00:53;2.28;;;1.10;;
61112;SDS011;47184;57.998;56.184;2022-10-31T06:03:20;1.17;;;0.60;;
61112;SDS011;47184;57.998;56.184;2022-10-31T06:05:48;3.33;;;2.10;;
61112;SDS011;47184;57.998;56.184;2022-10-31T06:08:15;5.40;;;2.58;;
61112;SDS011;47184;57.998;56.184;2022-10-31T06:10:42;3.45;;;1.63;;
61112;SDS011;47184;57.998;56.184;2022-10-31T06:13:10;5.10;;;2.17;;
61112;SDS011;47184;57.998;56.184;2022-10-31T06:15:44;8.73;;;2.03;;
61112;SDS011;47184;57.998;56.184;2022-10-31T06:18:11;5.68;;;1.83;;
61112;SDS011;47184;57.998;56.184;2022-10-31T06:20:46;2.67;;;1.77;;
61112;SDS011;47184;57.998;56.184;2022-10-31T06:23:13;3.13;;;1.92;;
61112;SDS011;47184;57.998;56.184;2022-10-31T06:25:41;6.78;;;2.08;;
61112;SDS011;47184;57.998;56.184;2022-10-31T06:28:10;3.22;;;2.10;;
61112;SDS011;47184;57.998;56.184;2022-10-31T06:30:55;4.35;;;2.03;;
61112;SDS011;47184;57.998;56.184;2022-10-31T06:33:22;1.95;;;1.25;;
61112;SDS011;47184;57.998;56.184;2022-10-31T06:35:56;6.93;;;3.67;;
61112;SDS011;47184;57.998;56.184;2022-10-31T06:38:25;4.05;;;2.00;;
61112;SDS011;47184;57.998;56.184;2022-10-31T06:40:52;4.50;;;2.40;;
61112;SDS011;47184;57.998;56.184;2022-10-31T06:43:25;3.42;;;1.77;;
61112;SDS011;47184;57.998;56.184;2022-10-31T06:46:08;3.63;;;2.00;;
61112;SDS011;47184;57.998;56.184;2022-10-31T06:48:42;4.55;;;2.00;;
61112;SDS011;47184;57.998;56.184;2022-10-31T06:51:35;3.83;;;2.05;;
61112;SDS011;47184;57.998;56.184;2022-10-31T06:54:01;5.78;;;2.55;;
61112;SDS011;47184;57.998;56.184;2022-10-31T06:56:27;5.50;;;2.90;;
61112;SDS011;47184;57.998;56.184;2022-10-31T06:58:55;7.93;;;2.17;;
61112;SDS011;47184;57.998;56.184;2022-10-31T07:01:41;2.75;;;1.83;;
61112;SDS011;47184;57.998;56.184;2022-10-31T07:04:11;4.35;;;2.40;;
61112;SDS011;47184;57.998;56.184;2022-10-31T07:06:37;3.67;;;2.30;;
61112;SDS011;47184;57.998;56.184;2022-10-31T07:09:04;4.88;;;2.10;;
61112;SDS011;47184;57.998;56.184;2022-10-31T07:11:30;6.55;;;2.42;;
61112;SDS011;47184;57.998;56.184;2022-10-31T07:13:57;2.47;;;1.75;;
61112;SDS011;47184;57.998;56.184;2022-10-31T07:16:23;1.40;;;0.73;;
61112;SDS011;47184;57.998;56.184;2022-10-31T07:18:50;3.63;;;2.05;;
61112;SDS011;47184;57.998;56.184;2022-10-31T07:21:16;5.65;;;1.80;;
61112;SDS011;47184;57.998;56.184;2022-10-31T07:23:42;2.63;;;1.75;;
61112;SDS011;47184;57.998;56.184;2022-10-31T07:26:26;1.70;;;0.95;;
61112;SDS011;47184;57.998;56.184;2022-10-31T07:28:53;4.72;;;2.13;;
61112;SDS011;47184;57.998;56.184;2022-10-31T07:31:22;3.50;;;2.00;;
61112;SDS011;47184;57.998;56.184;2022-10-31T07:33:51;1.50;;;1.15;;
61112;SDS011;47184;57.998;56.184;2022-10-31T07:36:26;4.15;;;2.13;;
61112;SDS011;47184;57.998;56.184;2022-10-31T07:38:57;9.10;;;1.25;;
61112;SDS011;47184;57.998;56.184;2022-10-31T07:41:24;2.97;;;1.67;;
61112;SDS011;47184;57.998;56.184;2022-10-31T07:43:51;2.15;;;1.45;;
61112;SDS011;47184;57.998;56.184;2022-10-31T07:46:17;3.65;;;1.90;;
61112;SDS011;47184;57.998;56.184;2022-10-31T07:49:01;3.28;;;1.73;;
61112;SDS011;47184;57.998;56.184;2022-10-31T07:51:46;3.42;;;1.55;;
61112;SDS011;47184;57.998;56.184;2022-10-31T07:54:12;2.17;;;1.00;;
61112;SDS011;47184;57.998;56.184;2022-10-31T07:56:38;5.00;;;2.10;;
61112;SDS011;47184;57.998;56.184;2022-10-31T07:59:05;4.75;;;2.00;;
61112;SDS011;47184;57.998;56.184;2022-10-31T08:01:31;6.38;;;2.63;;
61112;SDS011;47184;57.998;56.184;2022-10-31T08:04:24;2.90;;;1.52;;
61112;SDS011;47184;57.998;56.184;2022-10-31T08:07:08;6.25;;;2.15;;
61112;SDS011;47184;57.998;56.184;2022-10-31T08:09:38;6.55;;;3.40;;
61112;SDS011;47184;57.998;56.184;2022-10-31T08:12:15;3.38;;;1.70;;
61112;SDS011;47184;57.998;56.184;2022-10-31T08:14:42;4.68;;;2.38;;
61112;SDS011;47184;57.998;56.184;2022-10-31T08:17:08;6.60;;;2.05;;
61112;SDS011;47184;57.998;56.184;2022-10-31T08:19:43;2.50;;;1.40;;
61112;SDS011;47184;57.998;56.184;2022-10-31T08:22:12;2.83;;;1.70;;
61112;SDS011;47184;57.998;56.184;2022-10-31T08:24:38;2.78;;;1.40;;
61112;SDS011;47184;57.998;56.184;2022-10-31T08:27:04;6.30;;;1.48;;
61112;SDS011;47184;57.998;56.184;2022-10-31T08:29:31;5.00;;;2.17;;
61112;SDS011;47184;57.998;56.184;2022-10-31T08:31:57;8.23;;;3.45;;
61112;SDS011;47184;57.998;56.184;2022-10-31T08:34:42;11.63;;;5.40;;
61112;SDS011;47184;57.998;56.184;2022-10-31T08:37:29;11.05;;;4.18;;
61112;SDS011;47184;57.998;56.184;2022-10-31T08:39:55;10.95;;;2.95;;
61112;SDS011;47184;57.998;56.184;2022-10-31T08:42:21;6.50;;;3.13;;
61112;SDS011;47184;57.998;56.184;2022-10-31T08:44:48;2.15;;;1.42;;
61112;SDS011;47184;57.998;56.184;2022-10-31T08:47:14;2.55;;;1.75;;
61112;SDS011;47184;57.998;56.184;2022-10-31T08:49:40;7.10;;;2.25;;
61112;SDS011;47184;57.998;56.184;2022-10-31T08:52:06;3.70;;;1.80;;
61112;SDS011;47184;57.998;56.184;2022-10-31T08:54:36;6.20;;;2.65;;
61112;SDS011;47184;57.998;56.184;2022-10-31T08:57:38;4.13;;;2.40;;
61112;SDS011;47184;57.998;56.184;2022-10-31T09:00:04;3.38;;;1.83;;
61112;SDS011;47184;57.998;56.184;2022-10-31T09:03:03;5.57;;;2.35;;
61112;SDS011;47184;57.998;56.184;2022-10-31T09:05:32;6.43;;;3.20;;
61112;SDS011;47184;57.998;56.184;2022-10-31T09:07:59;5.15;;;2.55;;
61112;SDS011;47184;57.998;56.184;2022-10-31T09:10:27;1.48;;;1.10;;
61112;SDS011;47184;57.998;56.184;2022-10-31T09:13:01;4.35;;;2.53;;
61112;SDS011;47184;57.998;56.184;2022-10-31T09:16:06;2.13;;;1.00;;
61112;SDS011;47184;57.998;56.184;2022-10-31T09:18:34;4.50;;;2.33;;
61112;SDS011;47184;57.998;56.184;2022-10-31T09:21:00;4.75;;;1.70;;
61112;SDS011;47184;57.998;56.184;2022-10-31T09:23:29;9.60;;;2.95;;
61112;SDS011;47184;57.998;56.184;2022-10-31T09:25:58;5.10;;;2.72;;
61112;SDS011;47184;57.998;56.184;2022-10-31T09:28:30;4.72;;;2.35;;
61112;SDS011;47184;57.998;56.184;2022-10-31T09:31:03;7.68;;;2.50;;
61112;SDS011;47184;57.998;56.184;2022-10-31T09:34:04;3.20;;;1.63;;
61112;SDS011;47184;57.998;56.184;2022-10-31T09:36:37;5.00;;;2.63;;
61112;SDS011;47184;57.998;56.184;2022-10-31T09:39:07;4.40;;;2.50;;
61112;SDS011;47184;57.998;56.184;2022-10-31T09:41:44;10.40;;;2.53;;
61112;SDS011;47184;57.998;56.184;2022-10-31T09:46:58;6.03;;;2.58;;
61112;SDS011;47184;57.998;56.184;2022-10-31T09:52:21;6.78;;;2.80;;
61112;SDS011;47184;57.998;56.184;2022-10-31T09:54:53;4.13;;;2.30;;
61112;SDS011;47184;57.998;56.184;2022-10-31T09:57:33;5.05;;;1.92;;
61112;SDS011;47184;57.998;56.184;2022-10-31T10:00:04;9.00;;;3.45;;
61112;SDS011;47184;57.998;56.184;2022-10-31T10:02:41;11.93;;;2.35;;
61112;SDS011;47184;57.998;56.184;2022-10-31T10:05:30;3.03;;;1.98;;
61112;SDS011;47184;57.998;56.184;2022-10-31T10:08:10;6.60;;;3.20;;
61112;SDS011;47184;57.998;56.184;2022-10-31T10:14:31;3.40;;;1.98;;
61112;SDS011;47184;57.998;56.184;2022-10-31T10:17:19;3.22;;;1.35;;
61112;SDS011;47184;57.998;56.184;2022-10-31T10:30:32;5.78;;;3.55;;
61112;SDS011;47184;57.998;56.184;2022-10-31T10:33:13;8.40;;;3.72;;
61112;SDS011;47184;57.998;56.184;2022-10-31T10:36:02;9.63;;;3.55;;
61112;SDS011;47184;57.998;56.184;2022-10-31T10:38:37;4.72;;;2.55;;
61112;SDS011;47184;57.998;56.184;2022-10-31T10:41:05;6.10;;;3.00;;
61112;SDS011;47184;57.998;56.184;2022-10-31T10:43:36;13.35;;;4.07;;
61112;SDS011;47184;57.998;56.184;2022-10-31T10:49:18;5.65;;;2.83;;
61112;SDS011;47184;57.998;56.184;2022-10-31T11:00:16;3.50;;;2.25;;
61112;SDS011;47184;57.998;56.184;2022-10-31T11:02:42;5.03;;;2.40;;
61112;SDS011;47184;57.998;56.184;2022-10-31T11:05:13;5.00;;;3.17;;
61112;SDS011;47184;57.998;56.184;2022-10-31T11:07:46;10.20;;;3.92;;
61112;SDS011;47184;57.998;56.184;2022-10-31T11:10:13;9.15;;;4.53;;
61112;SDS011;47184;57.998;56.184;2022-10-31T11:12:41;5.45;;;2.50;;
61112;SDS011;47184;57.998;56.184;2022-10-31T11:15:20;1.75;;;1.30;;
61112;SDS011;47184;57.998;56.184;2022-10-31T11:17:50;9.10;;;4.22;;
61112;SDS011;47184;57.998;56.184;2022-10-31T11:22:45;2.88;;;1.40;;
61112;SDS011;47184;57.998;56.184;2022-10-31T11:27:58;6.70;;;3.70;;
61112;SDS011;47184;57.998;56.184;2022-10-31T11:30:28;6.80;;;2.57;;
61112;SDS011;47184;57.998;56.184;2022-10-31T11:32:55;8.05;;;4.32;;
61112;SDS011;47184;57.998;56.184;2022-10-31T11:35:22;6.80;;;4.53;;
61112;SDS011;47184;57.998;56.184;2022-10-31T11:37:50;6.07;;;3.38;;
61112;SDS011;47184;57.998;56.184;2022-10-31T11:40:25;6.25;;;3.85;;
61112;SDS011;47184;57.998;56.184;2022-10-31T11:42:54;6.22;;;2.40;;
61112;SDS011;47184;57.998;56.184;2022-10-31T11:47:57;4.43;;;3.05;;
61112;SDS011;47184;57.998;56.184;2022-10-31T11:50:27;5.75;;;2.95;;
61112;SDS011;47184;57.998;56.184;2022-10-31T11:53:12;7.63;;;4.47;;
61112;SDS011;47184;57.998;56.184;2022-10-31T11:55:42;7.93;;;3.40;;
61112;SDS011;47184;57.998;56.184;2022-10-31T11:58:25;2.53;;;1.50;;
61112;SDS011;47184;57.998;56.184;2022-10-31T12:00:55;3.95;;;2.55;;
61112;SDS011;47184;57.998;56.184;2022-10-31T12:08:29;7.55;;;3.88;;
61112;SDS011;47184;57.998;56.184;2022-10-31T12:19:27;7.85;;;4.35;;
61112;SDS011;47184;57.998;56.184;2022-10-31T12:22:10;6.75;;;3.85;;
61112;SDS011;47184;57.998;56.184;2022-10-31T12:25:19;5.90;;;3.80;;
61112;SDS011;47184;57.998;56.184;2022-10-31T12:30:55;8.98;;;4.47;;
61112;SDS011;47184;57.998;56.184;2022-10-31T12:36:37;7.53;;;3.92;;
61112;SDS011;47184;57.998;56.184;2022-10-31T12:49:47;2.42;;;1.58;;
61112;SDS011;47184;57.998;56.184;2022-10-31T13:01:16;1.38;;;0.95;;
61112;SDS011;47184;57.998;56.184;2022-10-31T13:06:38;5.45;;;3.20;;
61112;SDS011;47184;57.998;56.184;2022-10-31T13:09:10;8.13;;;3.80;;
61112;SDS011;47184;57.998;56.184;2022-10-31T13:11:43;4.97;;;3.17;;
61112;SDS011;47184;57.998;56.184;2022-10-31T13:17:01;4.25;;;2.80;;
61112;SDS011;47184;57.998;56.184;2022-10-31T13:19:30;3.67;;;2.08;;
61112;SDS011;47184;57.998;56.184;2022-10-31T13:24:40;4.30;;;2.75;;
61112;SDS011;47184;57.998;56.184;2022-10-31T13:27:13;4.00;;;2.42;;
61112;SDS011;47184;57.998;56.184;2022-10-31T13:38:34;8.63;;;4.07;;
61112;SDS011;47184;57.998;56.184;2022-10-31T13:46:26;10.25;;;4.18;;
61112;SDS011;47184;57.998;56.184;2022-10-31T13:49:02;11.10;;;4.25;;
61112;SDS011;47184;57.998;56.184;2022-10-31T13:51:30;7.15;;;2.83;;
61112;SDS011;47184;57.998;56.184;2022-10-31T13:56:52;7.20;;;3.58;;
61112;SDS011;47184;57.998;56.184;2022-10-31T13:59:19;8.55;;;3.70;;
61112;SDS011;47184;57.998;56.184;2022-10-31T14:01:53;5.05;;;3.08;;
61112;SDS011;47184;57.998;56.184;2022-10-31T14:04:47;8.55;;;4.75;;
61112;SDS011;47184;57.998;56.184;2022-10-31T14:07:18;11.35;;;3.58;;
61112;SDS011;47184;57.998;56.184;2022-10-31T14:09:59;7.50;;;4.18;;
61112;SDS011;47184;57.998;56.184;2022-10-31T14:12:37;9.70;;;4.75;;
61112;SDS011;47184;57.998;56.184;2022-10-31T14:20:24;4.75;;;2.60;;
61112;SDS011;47184;57.998;56.184;2022-10-31T14:22:58;10.40;;;4.85;;
61112;SDS011;47184;57.998;56.184;2022-10-31T14:25:31;7.35;;;3.40;;
61112;SDS011;47184;57.998;56.184;2022-10-31T14:28:05;8.98;;;4.50;;
61112;SDS011;47184;57.998;56.184;2022-10-31T14:30:54;5.72;;;2.72;;
61112;SDS011;47184;57.998;56.184;2022-10-31T14:33:24;11.57;;;4.22;;
61112;SDS011;47184;57.998;56.184;2022-10-31T14:36:15;7.70;;;4.13;;
61112;SDS011;47184;57.998;56.184;2022-10-31T14:39:02;4.78;;;3.08;;
61112;SDS011;47184;57.998;56.184;2022-10-31T14:41:40;12.15;;;4.10;;
61112;SDS011;47184;57.998;56.184;2022-10-31T14:44:45;9.85;;;4.47;;
61112;SDS011;47184;57.998;56.184;2022-10-31T14:52:34;8.60;;;4.57;;
61112;SDS011;47184;57.998;56.184;2022-10-31T14:55:04;12.57;;;5.72;;
61112;SDS011;47184;57.998;56.184;2022-10-31T14:57:36;15.68;;;6.45;;
61112;SDS011;47184;57.998;56.184;2022-10-31T15:00:05;7.40;;;4.10;;
61112;SDS011;47184;57.998;56.184;2022-10-31T15:02:36;14.43;;;5.53;;
61112;SDS011;47184;57.998;56.184;2022-10-31T15:05:07;6.57;;;2.78;;
61112;SDS011;47184;57.998;56.184;2022-10-31T15:07:34;13.00;;;6.43;;
61112;SDS011;47184;57.998;56.184;2022-10-31T15:10:02;13.52;;;5.22;;
61112;SDS011;47184;57.998;56.184;2022-10-31T15:12:31;7.95;;;4.78;;
61112;SDS011;47184;57.998;56.184;2022-10-31T15:15:17;13.07;;;5.40;;
61112;SDS011;47184;57.998;56.184;2022-10-31T15:17:57;10.35;;;5.15;;
61112;SDS011;47184;57.998;56.184;2022-10-31T15:20:26;12.25;;;5.55;;
61112;SDS011;47184;57.998;56.184;2022-10-31T15:25:33;10.35;;;5.43;;
61112;SDS011;47184;57.998;56.184;2022-10-31T15:28:00;1.67;;;1.00;;
61112;SDS011;47184;57.998;56.184;2022-10-31T15:30:27;3.30;;;1.67;;
61112;SDS011;47184;57.998;56.184;2022-10-31T15:32:54;6.50;;;2.42;;
61112;SDS011;47184;57.998;56.184;2022-10-31T15:35:25;9.57;;;5.25;;
61112;SDS011;47184;57.998;56.184;2022-10-31T15:37:54;8.18;;;2.08;;
61112;SDS011;47184;57.998;56.184;2022-10-31T15:40:23;12.25;;;4.43;;
61112;SDS011;47184;57.998;56.184;2022-10-31T15:42:56;13.70;;;5.40;;
61112;SDS011;47184;57.998;56.184;2022-10-31T15:45:25;12.23;;;4.22;;
61112;SDS011;47184;57.998;56.184;2022-10-31T15:52:58;5.72;;;2.88;;
61112;SDS011;47184;57.998;56.184;2022-10-31T15:55:25;9.23;;;4.57;;
61112;SDS011;47184;57.998;56.184;2022-10-31T15:57:56;9.50;;;4.20;;
61112;SDS011;47184;57.998;56.184;2022-10-31T16:03:02;11.23;;;4.88;;
61112;SDS011;47184;57.998;56.184;2022-10-31T16:05:46;9.70;;;5.00;;
61112;SDS011;47184;57.998;56.184;2022-10-31T16:10:55;10.73;;;3.85;;
61112;SDS011;47184;57.998;56.184;2022-10-31T16:13:25;12.38;;;5.30;;
61112;SDS011;47184;57.998;56.184;2022-10-31T16:16:02;8.40;;;4.68;;
61112;SDS011;47184;57.998;56.184;2022-10-31T16:18:37;8.95;;;3.97;;
61112;SDS011;47184;57.998;56.184;2022-10-31T16:21:06;8.70;;;5.07;;
61112;SDS011;47184;57.998;56.184;2022-10-31T16:23:34;7.70;;;4.60;;
61112;SDS011;47184;57.998;56.184;2022-10-31T16:26:06;11.88;;;4.75;;
61112;SDS011;47184;57.998;56.184;2022-10-31T16:28:34;12.38;;;7.47;;
61112;SDS011;47184;57.998;56.184;2022-10-31T16:31:06;10.20;;;4.88;;
61112;SDS011;47184;57.998;56.184;2022-10-31T16:33:39;14.10;;;5.95;;
61112;SDS011;47184;57.998;56.184;2022-10-31T16:41:17;6.97;;;4.20;;
61112;SDS011;47184;57.998;56.184;2022-10-31T16:43:43;7.97;;;4.90;;
61112;SDS011;47184;57.998;56.184;2022-10-31T16:46:12;18.20;;;9.00;;
61112;SDS011;47184;57.998;56.184;2022-10-31T16:48:41;12.50;;;5.97;;
61112;SDS011;47184;57.998;56.184;2022-10-31T16:51:07;14.70;;;5.78;;
61112;SDS011;47184;57.998;56.184;2022-10-31T16:53:39;11.82;;;5.90;;
61112;SDS011;47184;57.998;56.184;2022-10-31T16:56:06;10.93;;;5.20;;
61112;SDS011;47184;57.998;56.184;2022-10-31T16:58:46;10.07;;;5.43;;
61112;SDS011;47184;57.998;56.184;2022-10-31T17:01:15;14.73;;;6.22;;
61112;SDS011;47184;57.998;56.184;2022-10-31T17:03:41;13.93;;;5.97;;
61112;SDS011;47184;57.998;56.184;2022-10-31T17:06:29;11.75;;;5.22;;
61112;SDS011;47184;57.998;56.184;2022-10-31T17:09:00;17.58;;;6.20;;
61112;SDS011;47184;57.998;56.184;2022-10-31T17:11:29;9.85;;;4.75;;
61112;SDS011;47184;57.998;56.184;2022-10-31T17:13:55;9.32;;;5.35;;
61112;SDS011;47184;57.998;56.184;2022-10-31T17:16:24;16.40;;;5.35;;
61112;SDS011;47184;57.998;56.184;2022-10-31T17:18:51;13.05;;;6.00;;
61112;SDS011;47184;57.998;56.184;2022-10-31T17:21:18;17.92;;;6.18;;
61112;SDS011;47184;57.998;56.184;2022-10-31T17:23:54;12.73;;;5.55;;
61112;SDS011;47184;57.998;56.184;2022-10-31T17:26:21;12.55;;;6.05;;
61112;SDS011;47184;57.998;56.184;2022-10-31T17:28:48;19.92;;;7.65;;
61112;SDS011;47184;57.998;56.184;2022-10-31T17:31:21;13.48;;;6.30;;
61112;SDS011;47184;57.998;56.184;2022-10-31T17:33:49;11.10;;;5.00;;
61112;SDS011;47184;57.998;56.184;2022-10-31T17:36:17;14.18;;;6.95;;
61112;SDS011;47184;57.998;56.184;2022-10-31T17:38:46;13.02;;;6.22;;
61112;SDS011;47184;57.998;56.184;2022-10-31T17:41:12;14.13;;;6.28;;
61112;SDS011;47184;57.998;56.184;2022-10-31T17:43:38;9.43;;;5.65;;
61112;SDS011;47184;57.998;56.184;2022-10-31T17:46:10;14.40;;;7.57;;
61112;SDS011;47184;57.998;56.184;2022-10-31T17:48:36;13.02;;;5.88;;